Terminal Aerodrome Forecast
Issued by NWS Pocatello, ID

Home | Current Version | Previous Version | Text Only | Print | Product List | Glossary On
Versions: 1 2 3 4 5 6 7 8 9 10 11 12 13 14 15 16 17 18 19 20 21
000
FTUS45 KPIH 210500
TAFPIH
TAF
KPIH 210520Z 2106/2206 VRB05KT P6SM SCT090 OVC160
     FM210900 VRB05KT P6SM VCSH BKN100 OVC140
     FM211200 17008KT P6SM VCSH SCT060 BKN100 OVC160
     FM211800 25010KT P6SM VCTS SCT050CB BKN110
     FM212200 22010KT P6SM VCTS SCT060CB=

USA.gov is the U.S. government's official web portal to all federal, state and local government web resources and services.